Elizabeth City Cg Air Station Regional Airport
KECG : rendu visible

Aérodrome :











RETROUVEZ-NOUS SUR...

 
LOGIN :

S'inscrire | Disclaimer

   EN    FR    IT 

 









Légende :    VFR   VFR Marginal   IFR   IFR Intensif   IFR Très Intensif
Visi : 
Plafond : 
>= 8 km
>= 3000ft
5 à 8 km
1000 à 3000 ft
1500m à 5 km
500 à 1000 ft
800 à 1500m
200 à 500 ft
< 800m
< 200 ft
Symboles :   Orages  Brouillard  Fortes neiges  Fortes précipitations  Vent > 20 kt






- Altitude de l'aérodrome : 12 ft


KECG - Elizabeth City Cg Air Station Regional

DERNIER METAR :
  • 171154Z 02019G27KT 2SM -RA BR BKN012 OVC017 12/10 A3001 RMK AO2 PK WND 03027/1151 SLP161 P0001 60002 70012 T01170100 10122 20111 53005

METARs EXPIRÉS :
  • 171054Z AUTO 02019G32KT 3SM -RA BR OVC012 11/09 A2999 RMK AO2 PK WND 03032/1047 SLP155 P0000 T01110094
  • 171038Z AUTO 02020G32KT 3SM -RA BR BKN009 OVC014 11/09 A2999 RMK AO2 PK WND 02032/1031 P0000 T01110094
  • 170954Z AUTO 02020G31KT 3SM -RA BR BKN012 OVC017 12/09 A2999 RMK AO2 PK WND 04032/0919 SLP155 P0001 T01170094

TAF COR TAF KECG
Valide du 17 à 12h jusqu'au 18 à 12h UTC


171143Z 1712/1812 02021G33KT 3SM -RA BR OVC012
FM172100 01019G29KT 5SM -RA BR OVC009
FM180200 35017G26KT 4SM BR OVC007



MET'MAP, la Météo Aéronautique d'un coup d'oeil ! - Copyright ORBIFLY Décembre 2007 - Disclaimer

ORBIFLY MET'MAP TEAM :

Programmation & Développement : Alexandra Zaïnal
Conception & Développement : Baudouin d'Aumeries
Co-Programmation & Développement : Marc-Olivier Méhu
Soutien technique & logistique : Manuel Goepfert

Contact : metmap@orbifly.com




SOURCES & CREDITS :

   NOAA       Earth
Advisory